createdAt,value
2023-03-27T00:00:07.945Z,2.87
2023-03-27T00:02:35.112Z,3.40
2023-03-27T00:05:02.242Z,3.10
2023-03-27T00:07:29.339Z,3.73
2023-03-27T00:09:57.718Z,2.57
2023-03-27T00:12:24.784Z,3.93
2023-03-27T00:14:51.930Z,2.87
2023-03-27T00:17:19.024Z,3.60
2023-03-27T00:19:46.074Z,3.50
2023-03-27T00:22:13.218Z,3.13
2023-03-27T00:24:40.281Z,3.37
2023-03-27T00:27:08.723Z,3.97
2023-03-27T00:29:35.819Z,3.10
2023-03-27T00:32:02.951Z,3.70
2023-03-27T00:34:30.131Z,3.90
2023-03-27T00:36:57.327Z,3.40
2023-03-27T00:39:24.399Z,3.20
2023-03-27T00:41:51.584Z,3.77
2023-03-27T00:44:23.739Z,4.53
2023-03-27T00:46:51.001Z,2.70
2023-03-27T00:49:18.284Z,3.13
2023-03-27T00:51:46.753Z,3.53
2023-03-27T00:54:14.294Z,3.67
2023-03-27T00:56:41.414Z,3.40
2023-03-27T00:59:10.119Z,3.90
2023-03-27T01:01:39.501Z,3.37
2023-03-27T01:04:07.967Z,5.20
2023-03-27T01:06:35.332Z,4.40
2023-03-27T01:09:02.858Z,4.20
2023-03-27T01:11:34.737Z,4.00
2023-03-27T01:14:08.669Z,4.03
2023-03-27T01:16:41.233Z,3.73
2023-03-27T01:19:29.285Z,4.63
2023-03-27T01:22:16.265Z,5.07
2023-03-27T01:24:53.203Z,4.17
2023-03-27T01:27:22.102Z,4.53
2023-03-27T01:29:55.159Z,3.30
2023-03-27T01:32:44.972Z,4.40
2023-03-27T01:35:31.266Z,3.57
2023-03-27T01:38:06.545Z,3.70
2023-03-27T01:40:38.506Z,3.80
2023-03-27T01:43:07.647Z,3.90
2023-03-27T01:45:37.120Z,4.03
2023-03-27T01:48:07.787Z,4.17
2023-03-27T01:50:38.297Z,4.70
2023-03-27T01:53:08.314Z,3.77
2023-03-27T01:55:38.713Z,4.20
2023-03-27T01:58:07.589Z,5.00
2023-03-27T02:00:51.410Z,4.40
2023-03-27T02:03:21.294Z,3.83
2023-03-27T02:05:50.102Z,5.23
2023-03-27T02:08:21.409Z,3.33
2023-03-27T02:10:57.422Z,3.80
2023-03-27T02:13:27.746Z,4.10
2023-03-27T02:15:55.300Z,4.47
2023-03-27T02:18:26.947Z,3.37
2023-03-27T02:20:54.246Z,3.33
2023-03-27T02:23:21.553Z,3.90
2023-03-27T02:25:48.681Z,3.90
2023-03-27T02:28:25.601Z,4.33
2023-03-27T02:31:07.107Z,3.40
2023-03-27T02:33:54.728Z,3.40
2023-03-27T02:36:27.899Z,3.37
2023-03-27T02:39:00.596Z,4.17
2023-03-27T02:41:29.455Z,3.67
2023-03-27T02:44:11.523Z,3.80
2023-03-27T02:46:52.669Z,3.50
2023-03-27T02:49:22.541Z,3.73
2023-03-27T02:51:51.536Z,4.27
2023-03-27T02:54:20.719Z,4.60
2023-03-27T02:56:50.017Z,5.10
2023-03-27T02:59:29.082Z,3.50
2023-03-27T03:01:56.409Z,3.00
2023-03-27T03:04:29.012Z,3.67
2023-03-27T03:07:21.569Z,4.33
2023-03-27T03:09:48.697Z,4.00
2023-03-27T03:12:15.817Z,4.40
2023-03-27T03:14:47.125Z,4.30
2023-03-27T03:17:15.475Z,3.53
2023-03-27T03:19:42.620Z,3.23
2023-03-27T03:22:09.802Z,3.50
2023-03-27T03:24:38.358Z,3.27
2023-03-27T03:27:05.512Z,3.00
2023-03-27T03:29:40.536Z,4.37
2023-03-27T03:32:21.347Z,3.73
2023-03-27T03:34:51.590Z,3.93
2023-03-27T03:37:19.152Z,2.90
2023-03-27T03:39:46.288Z,3.80
2023-03-27T03:42:22.940Z,3.63
2023-03-27T03:44:53.005Z,4.47
2023-03-27T03:47:23.586Z,2.87
2023-03-27T03:49:51.087Z,4.00
2023-03-27T03:52:18.383Z,3.10
2023-03-27T03:54:46.684Z,3.30
2023-03-27T03:57:14.198Z,2.90
2023-03-27T03:59:41.828Z,3.73
2023-03-27T04:02:29.558Z,2.70
2023-03-27T04:05:08.378Z,3.23
2023-03-27T04:07:36.605Z,3.03
2023-03-27T04:10:30.322Z,3.67
2023-03-27T04:12:58.642Z,3.53
2023-03-27T04:15:36.265Z,3.10
2023-03-27T04:18:15.816Z,4.40
2023-03-27T04:20:43.228Z,3.70
2023-03-27T04:23:13.061Z,2.97
2023-03-27T04:25:41.031Z,2.97
2023-03-27T04:28:09.812Z,3.53
2023-03-27T04:30:41.030Z,3.17
2023-03-27T04:33:30.824Z,2.70
2023-03-27T04:36:17.305Z,3.93
2023-03-27T04:38:54.927Z,3.13
2023-03-27T04:41:22.077Z,2.77
2023-03-27T04:43:49.344Z,3.00
2023-03-27T04:46:17.030Z,3.93
2023-03-27T04:48:46.016Z,4.13
2023-03-27T04:51:37.568Z,3.10
2023-03-27T04:54:05.196Z,3.20
2023-03-27T04:56:33.140Z,3.60
2023-03-27T04:59:00.324Z,3.50
2023-03-27T05:01:27.465Z,3.17
2023-03-27T05:04:18.908Z,4.30
2023-03-27T05:07:12.380Z,4.00
2023-03-27T05:09:39.624Z,3.57
2023-03-27T05:12:07.285Z,3.60
2023-03-27T05:14:40.491Z,3.30
2023-03-27T05:17:15.230Z,3.20
2023-03-27T05:19:46.134Z,4.20
2023-03-27T05:22:13.297Z,3.30
2023-03-27T05:24:48.168Z,4.03
2023-03-27T05:27:15.297Z,3.77
2023-03-27T05:29:47.546Z,3.60
2023-03-27T05:32:16.693Z,2.70
2023-03-27T05:34:49.811Z,4.90
2023-03-27T05:37:17.762Z,3.73
2023-03-27T05:40:05.432Z,3.53
2023-03-27T05:42:32.613Z,4.10
2023-03-27T05:44:59.726Z,2.93
2023-03-27T05:47:26.975Z,3.63
2023-03-27T05:49:55.664Z,4.47
2023-03-27T05:52:22.838Z,3.63
2023-03-27T05:54:55.969Z,3.57
2023-03-27T05:57:23.149Z,4.23
2023-03-27T05:59:55.694Z,4.63
2023-03-27T06:02:24.098Z,4.13
2023-03-27T06:04:58.728Z,4.00
2023-03-27T06:07:35.415Z,3.57
2023-03-27T06:10:06.422Z,3.80
2023-03-27T06:12:46.414Z,3.53
2023-03-27T06:15:25.620Z,4.00
2023-03-27T06:18:04.589Z,3.87
2023-03-27T06:20:37.849Z,3.50
2023-03-27T06:23:05.334Z,3.20
2023-03-27T06:25:35.586Z,3.30
2023-03-27T06:28:04.081Z,4.43
2023-03-27T06:30:36.150Z,3.90
2023-03-27T06:33:29.478Z,3.87
2023-03-27T06:36:00.841Z,4.07
2023-03-27T06:38:33.420Z,4.30
2023-03-27T06:41:01.802Z,3.40
2023-03-27T06:43:58.805Z,4.07
2023-03-27T06:46:42.749Z,4.70
2023-03-27T06:49:21.766Z,3.13
2023-03-27T06:51:50.344Z,4.20
2023-03-27T06:54:20.297Z,4.20
2023-03-27T06:56:51.304Z,6.27
2023-03-27T06:59:21.044Z,2.83
2023-03-27T07:01:51.383Z,3.47
2023-03-27T07:04:27.277Z,3.67
2023-03-27T07:07:02.397Z,3.70
2023-03-27T07:09:33.614Z,2.90
2023-03-27T07:12:04.962Z,3.07
2023-03-27T07:14:32.328Z,3.07
2023-03-27T07:16:59.728Z,2.83
2023-03-27T07:19:32.133Z,2.50
2023-03-27T07:22:07.644Z,2.50
2023-03-27T07:24:36.871Z,2.50
2023-03-27T07:27:04.706Z,2.20
2023-03-27T07:29:33.468Z,1.97
2023-03-27T07:32:06.048Z,2.57
2023-03-27T07:34:40.659Z,2.23
2023-03-27T07:37:27.655Z,2.10
2023-03-27T07:40:39.485Z,3.20
2023-03-27T07:43:24.561Z,2.30
2023-03-27T07:45:51.993Z,2.00
2023-03-27T07:48:19.201Z,2.40
2023-03-27T07:50:47.767Z,1.90
2023-03-27T07:53:33.563Z,1.90
2023-03-27T07:56:20.670Z,2.13
2023-03-27T07:58:48.374Z,1.77
2023-03-27T08:01:20.498Z,2.20
2023-03-27T08:03:48.348Z,2.27
2023-03-27T08:06:18.036Z,2.93
2023-03-27T08:08:47.928Z,2.70
2023-03-27T08:11:27.351Z,1.93
2023-03-27T08:13:57.084Z,1.90
2023-03-27T08:16:24.276Z,2.23
2023-03-27T08:18:51.492Z,2.10
2023-03-27T08:21:18.966Z,2.40
2023-03-27T08:23:51.182Z,1.67
2023-03-27T08:26:36.813Z,2.03
2023-03-27T08:29:07.927Z,2.10
2023-03-27T08:31:35.820Z,1.90
2023-03-27T08:34:05.168Z,2.00
2023-03-27T08:36:43.939Z,2.27
2023-03-27T08:39:12.679Z,1.80
2023-03-27T08:41:49.692Z,2.10
2023-03-27T08:44:22.828Z,2.00
2023-03-27T08:46:51.943Z,2.60
2023-03-27T08:49:20.045Z,2.67
2023-03-27T08:52:14.942Z,2.20
2023-03-27T08:54:45.571Z,2.80
2023-03-27T08:57:18.499Z,1.93
2023-03-27T08:59:47.516Z,1.97
2023-03-27T09:02:19.176Z,1.87
2023-03-27T09:04:49.511Z,2.50
2023-03-27T09:07:20.583Z,1.90
2023-03-27T09:10:13.515Z,2.07
2023-03-27T09:12:52.180Z,2.20
2023-03-27T09:15:21.752Z,1.80
2023-03-27T09:17:52.073Z,1.87
2023-03-27T09:20:20.931Z,3.53
2023-03-27T09:22:52.203Z,2.17
2023-03-27T09:25:32.582Z,2.50
2023-03-27T09:28:19.985Z,2.10
2023-03-27T09:30:56.691Z,2.00
2023-03-27T09:33:33.804Z,2.10
2023-03-27T09:36:01.187Z,2.60
2023-03-27T09:38:30.541Z,2.50
2023-03-27T09:41:02.012Z,2.43
2023-03-27T09:43:36.776Z,1.87
2023-03-27T09:46:04.633Z,2.30
2023-03-27T09:48:35.619Z,2.90
2023-03-27T09:51:05.191Z,2.40
2023-03-27T09:53:37.486Z,2.70
2023-03-27T09:56:26.250Z,2.00
2023-03-27T09:58:54.983Z,1.90
2023-03-27T10:01:27.743Z,2.50
2023-03-27T10:03:59.995Z,1.90
2023-03-27T10:06:50.312Z,2.37
2023-03-27T10:09:26.342Z,2.77
2023-03-27T10:12:08.775Z,2.50
2023-03-27T10:14:36.750Z,2.20
2023-03-27T10:17:04.726Z,2.93
2023-03-27T10:19:34.048Z,1.70
2023-03-27T10:22:09.756Z,1.80
2023-03-27T10:24:44.362Z,2.20
2023-03-27T10:27:17.632Z,2.50
2023-03-27T10:30:25.159Z,1.87
2023-03-27T10:32:54.399Z,2.57
2023-03-27T10:35:40.149Z,2.27
2023-03-27T10:38:15.943Z,2.77
2023-03-27T10:40:57.448Z,3.57
2023-03-27T10:43:38.904Z,2.20
2023-03-27T10:46:10.252Z,2.00
2023-03-27T10:48:42.333Z,2.07
2023-03-27T10:51:22.763Z,2.30
2023-03-27T10:54:00.736Z,2.20
2023-03-27T10:56:43.305Z,1.70
2023-03-27T10:59:15.751Z,1.80
2023-03-27T11:01:45.752Z,1.77
2023-03-27T11:04:16.248Z,2.13
2023-03-27T11:06:50.819Z,4.00
2023-03-27T11:09:21.499Z,2.87
2023-03-27T11:11:59.891Z,2.80
2023-03-27T11:14:32.081Z,2.20
2023-03-27T11:17:04.613Z,2.53
2023-03-27T11:19:52.373Z,3.13
2023-03-27T11:22:57.254Z,2.30
2023-03-27T11:25:39.975Z,3.00
2023-03-27T11:28:20.180Z,2.67
2023-03-27T11:30:50.121Z,3.53
2023-03-27T11:33:31.644Z,1.80
2023-03-27T11:36:12.341Z,1.30
2023-03-27T11:38:46.057Z,1.60
2023-03-27T11:41:15.465Z,1.17
2023-03-27T11:43:43.216Z,1.40
2023-03-27T11:46:47.415Z,1.30
2023-03-27T11:49:22.421Z,1.23
2023-03-27T11:51:56.648Z,1.40
2023-03-27T11:54:32.126Z,1.43
2023-03-27T11:57:06.572Z,0.90
2023-03-27T11:59:51.315Z,1.40
2023-03-27T12:02:36.550Z,1.30
2023-03-27T12:05:09.389Z,1.20
2023-03-27T12:07:50.797Z,1.47
2023-03-27T12:10:28.533Z,1.57
2023-03-27T12:13:43.872Z,1.40
2023-03-27T12:16:32.104Z,1.10
2023-03-27T12:19:21.258Z,1.37
2023-03-27T12:22:22.795Z,1.40
2023-03-27T12:25:00.200Z,1.20
2023-03-27T12:27:59.618Z,1.50
2023-03-27T12:30:43.149Z,1.37
2023-03-27T12:33:21.189Z,1.87
2023-03-27T12:35:51.066Z,1.87
2023-03-27T12:38:27.098Z,1.70
2023-03-27T12:41:03.502Z,0.97
2023-03-27T12:43:45.598Z,1.00
2023-03-27T12:46:37.601Z,1.00
2023-03-27T12:49:19.932Z,1.20
2023-03-27T12:52:03.871Z,0.80
2023-03-27T12:55:08.170Z,1.00
2023-03-27T12:57:53.903Z,1.30
2023-03-27T13:00:41.280Z,0.90
2023-03-27T13:03:28.231Z,1.20
2023-03-27T13:06:03.974Z,1.43
2023-03-27T13:08:37.987Z,1.00
2023-03-27T13:11:18.869Z,1.60
2023-03-27T13:14:18.174Z,1.20
2023-03-27T13:16:52.702Z,1.40
2023-03-27T13:19:26.759Z,1.30
2023-03-27T13:22:13.383Z,1.50
2023-03-27T13:24:50.098Z,1.23
2023-03-27T13:27:32.725Z,1.13
2023-03-27T13:30:00.877Z,1.63
2023-03-27T13:32:42.168Z,1.30
2023-03-27T13:35:27.656Z,1.57
2023-03-27T13:37:57.031Z,1.30
2023-03-27T13:40:31.377Z,1.47
2023-03-27T13:43:22.329Z,1.50
2023-03-27T13:45:57.195Z,1.13
2023-03-27T13:49:05.108Z,1.40
2023-03-27T13:51:43.206Z,1.40
2023-03-27T13:54:29.254Z,1.10
2023-03-27T13:57:01.128Z,2.30
2023-03-27T13:59:46.784Z,2.00
2023-03-27T14:02:32.985Z,1.93
2023-03-27T14:05:11.369Z,1.63
2023-03-27T14:07:53.737Z,1.60
2023-03-27T14:10:30.930Z,1.80
2023-03-27T14:13:08.112Z,2.20
2023-03-27T14:15:54.850Z,1.90
2023-03-27T14:18:40.165Z,1.80
2023-03-27T14:21:08.536Z,1.83
2023-03-27T14:23:47.328Z,1.70
2023-03-27T14:26:24.397Z,1.40
2023-03-27T14:28:54.207Z,1.57
2023-03-27T14:31:43.719Z,1.73
2023-03-27T14:34:19.324Z,1.67
2023-03-27T14:36:47.445Z,2.40
2023-03-27T14:39:21.832Z,2.50
2023-03-27T14:41:53.362Z,1.50
2023-03-27T14:44:21.187Z,1.30
2023-03-27T14:46:50.303Z,1.30
2023-03-27T14:49:18.689Z,1.30
2023-03-27T14:51:50.242Z,1.43
2023-03-27T14:54:48.659Z,1.60
2023-03-27T14:57:23.249Z,1.83
2023-03-27T14:59:55.846Z,1.90
2023-03-27T15:02:26.931Z,1.50
2023-03-27T15:05:01.719Z,1.53
2023-03-27T15:07:33.710Z,1.57
2023-03-27T15:10:19.413Z,1.50
2023-03-27T15:12:58.359Z,2.03
2023-03-27T15:15:27.533Z,1.40
2023-03-27T15:17:56.029Z,1.50
2023-03-27T15:20:25.920Z,1.70
2023-03-27T15:22:56.156Z,1.50
2023-03-27T15:25:28.616Z,1.43
2023-03-27T15:27:57.841Z,1.40
2023-03-27T15:30:27.716Z,1.60
2023-03-27T15:32:57.004Z,1.90
2023-03-27T15:35:28.103Z,1.60
2023-03-27T15:37:55.312Z,1.50
2023-03-27T15:40:31.442Z,2.00
2023-03-27T15:43:02.055Z,2.03
2023-03-27T15:45:35.506Z,1.40
2023-03-27T15:48:05.364Z,1.40
2023-03-27T15:50:32.774Z,1.90
2023-03-27T15:53:00.375Z,1.80
2023-03-27T15:55:32.207Z,1.80
2023-03-27T15:57:59.384Z,2.27
2023-03-27T16:00:28.820Z,1.70
2023-03-27T16:02:56.435Z,2.03
2023-03-27T16:05:24.917Z,2.47
2023-03-27T16:07:55.111Z,1.60
2023-03-27T16:10:29.562Z,1.40
2023-03-27T16:12:57.410Z,2.33
2023-03-27T16:15:28.243Z,1.30
2023-03-27T16:17:55.846Z,1.40
2023-03-27T16:20:39.657Z,1.93
2023-03-27T16:23:06.837Z,1.80
2023-03-27T16:25:34.251Z,2.00
2023-03-27T16:28:01.970Z,2.27
2023-03-27T16:30:30.437Z,1.77
2023-03-27T16:32:57.699Z,1.63
2023-03-27T16:35:24.950Z,1.83
2023-03-27T16:37:53.545Z,1.70
2023-03-27T16:40:20.771Z,1.50
2023-03-27T16:42:48.018Z,1.67
2023-03-27T16:45:15.268Z,1.80
2023-03-27T16:47:42.499Z,1.77
2023-03-27T16:50:15.642Z,1.40
2023-03-27T16:52:42.766Z,1.70
2023-03-27T16:55:11.434Z,1.67
2023-03-27T16:57:38.576Z,1.40
2023-03-27T17:00:06.698Z,1.80
2023-03-27T17:02:35.141Z,2.33
2023-03-27T17:05:02.495Z,1.40
2023-03-27T17:07:29.634Z,1.40
2023-03-27T17:09:56.761Z,1.47
2023-03-27T17:12:25.210Z,1.93
2023-03-27T17:14:52.336Z,2.00
2023-03-27T17:17:19.456Z,1.87
2023-03-27T17:19:46.572Z,2.00
2023-03-27T17:22:14.098Z,1.80
2023-03-27T17:24:55.205Z,1.53
2023-03-27T17:27:25.222Z,1.87
2023-03-27T17:29:53.677Z,1.77
2023-03-27T17:32:20.948Z,3.00
2023-03-27T17:34:48.088Z,1.80
2023-03-27T17:37:15.220Z,1.80
2023-03-27T17:39:42.345Z,1.50
2023-03-27T17:42:09.487Z,1.83
2023-03-27T17:44:38.047Z,1.80
2023-03-27T17:47:05.351Z,1.87
2023-03-27T17:49:32.557Z,1.80
2023-03-27T17:51:59.642Z,2.43
2023-03-27T17:54:26.717Z,1.77
2023-03-27T17:56:53.892Z,2.33
2023-03-27T17:59:21.019Z,2.37
2023-03-27T18:01:49.630Z,2.50
2023-03-27T18:04:17.933Z,2.30
2023-03-27T18:06:45.017Z,2.77
2023-03-27T18:09:12.123Z,3.33
2023-03-27T18:11:39.492Z,3.53
2023-03-27T18:14:06.629Z,3.13
2023-03-27T18:16:33.811Z,3.60
2023-03-27T18:19:02.968Z,2.63
2023-03-27T18:21:30.112Z,2.67
2023-03-27T18:23:57.231Z,2.10
2023-03-27T18:26:24.343Z,1.73
2023-03-27T18:28:51.716Z,2.27
2023-03-27T18:31:19.119Z,2.83
2023-03-27T18:33:46.251Z,2.07
2023-03-27T18:36:14.742Z,1.80
2023-03-27T18:38:42.185Z,3.30
2023-03-27T18:41:09.882Z,2.17
2023-03-27T18:43:37.041Z,2.37
2023-03-27T18:46:05.316Z,1.90
2023-03-27T18:48:32.489Z,1.60
2023-03-27T18:51:01.000Z,2.00
2023-03-27T18:53:29.871Z,1.77
2023-03-27T18:55:57.304Z,3.17
2023-03-27T18:58:24.915Z,2.67
2023-03-27T19:00:52.064Z,1.43
2023-03-27T19:03:20.454Z,2.30
2023-03-27T19:05:48.185Z,2.67
2023-03-27T19:08:15.458Z,2.40
2023-03-27T19:10:43.917Z,2.03
2023-03-27T19:13:17.717Z,2.50
2023-03-27T19:16:14.704Z,2.63
2023-03-27T19:19:05.836Z,2.00
2023-03-27T19:21:59.022Z,2.07
2023-03-27T19:24:48.789Z,2.00
2023-03-27T19:27:23.793Z,2.17
2023-03-27T19:29:51.756Z,2.20
2023-03-27T19:32:18.986Z,2.60
2023-03-27T19:34:46.153Z,1.80
2023-03-27T19:37:13.276Z,1.77
2023-03-27T19:39:40.359Z,2.13
2023-03-27T19:42:07.526Z,2.30
2023-03-27T19:44:39.341Z,2.10
2023-03-27T19:47:06.630Z,1.80
2023-03-27T19:49:33.733Z,2.63
2023-03-27T19:52:19.652Z,2.33
2023-03-27T19:54:46.979Z,2.37
2023-03-27T19:57:14.374Z,2.30
2023-03-27T19:59:42.854Z,2.17
2023-03-27T20:02:10.357Z,2.10
2023-03-27T20:04:37.471Z,2.30
2023-03-27T20:07:04.660Z,2.40
2023-03-27T20:09:31.838Z,2.43
2023-03-27T20:11:58.985Z,1.90
2023-03-27T20:14:29.302Z,2.40
2023-03-27T20:16:57.740Z,2.23
2023-03-27T20:19:24.838Z,2.30
2023-03-27T20:21:52.131Z,2.40
2023-03-27T20:24:19.270Z,2.50
2023-03-27T20:26:54.100Z,2.67
2023-03-27T20:29:24.948Z,3.20
2023-03-27T20:31:52.207Z,2.80
2023-03-27T20:34:20.897Z,3.10
2023-03-27T20:36:48.029Z,2.50
2023-03-27T20:39:27.170Z,2.23
2023-03-27T20:41:54.282Z,2.20
2023-03-27T20:44:21.444Z,2.73
2023-03-27T20:46:48.658Z,2.50
2023-03-27T20:49:16.162Z,2.20
2023-03-27T20:51:44.606Z,3.10
2023-03-27T20:54:11.692Z,2.30
2023-03-27T20:56:38.864Z,2.40
2023-03-27T20:59:05.995Z,2.33
2023-03-27T21:01:33.102Z,2.60
2023-03-27T21:04:00.191Z,2.37
2023-03-27T21:06:27.317Z,2.10
2023-03-27T21:08:55.806Z,3.10
2023-03-27T21:11:22.901Z,2.43
2023-03-27T21:13:50.109Z,3.47
2023-03-27T21:16:17.315Z,2.40
2023-03-27T21:18:44.461Z,2.07
2023-03-27T21:21:11.639Z,2.50
2023-03-27T21:23:38.720Z,2.73
2023-03-27T21:26:07.664Z,2.43
2023-03-27T21:28:34.792Z,2.33
2023-03-27T21:31:06.061Z,2.23
2023-03-27T21:33:33.156Z,2.87
2023-03-27T21:36:00.485Z,2.77
2023-03-27T21:38:27.907Z,3.37
2023-03-27T21:40:55.025Z,2.87
2023-03-27T21:43:23.728Z,2.63
2023-03-27T21:45:51.006Z,2.63
2023-03-27T21:48:18.156Z,2.23
2023-03-27T21:50:47.748Z,2.50
2023-03-27T21:53:15.021Z,2.30
2023-03-27T21:55:42.175Z,2.40
2023-03-27T21:58:09.319Z,2.80
2023-03-27T22:00:37.883Z,3.13
2023-03-27T22:03:05.072Z,2.60
2023-03-27T22:05:35.623Z,3.30
2023-03-27T22:08:02.738Z,4.53
2023-03-27T22:10:29.883Z,2.33
2023-03-27T22:12:57.206Z,2.30
2023-03-27T22:15:24.322Z,2.70
2023-03-27T22:17:52.812Z,3.40
2023-03-27T22:20:20.233Z,2.30
2023-03-27T22:22:47.375Z,2.30
2023-03-27T22:25:14.765Z,2.20
2023-03-27T22:27:41.862Z,3.13
2023-03-27T22:30:09.333Z,3.80
2023-03-27T22:32:36.521Z,2.17
2023-03-27T22:35:05.278Z,3.37
2023-03-27T22:37:35.397Z,3.07
2023-03-27T22:40:02.638Z,2.63
2023-03-27T22:42:29.829Z,3.93
2023-03-27T22:44:57.037Z,2.70
2023-03-27T22:47:24.196Z,2.87
2023-03-27T22:49:51.389Z,3.17
2023-03-27T22:52:19.825Z,2.40
2023-03-27T22:54:46.953Z,2.57
2023-03-27T22:57:14.219Z,2.63
2023-03-27T22:59:41.409Z,2.60
2023-03-27T23:02:08.591Z,2.57
2023-03-27T23:04:35.833Z,3.40
2023-03-27T23:07:03.017Z,3.10
2023-03-27T23:09:31.473Z,3.50
2023-03-27T23:11:58.570Z,2.70
2023-03-27T23:14:25.752Z,3.10
2023-03-27T23:16:52.861Z,2.93
2023-03-27T23:19:20.143Z,3.23
2023-03-27T23:21:47.297Z,2.97
2023-03-27T23:24:14.464Z,2.80
2023-03-27T23:26:43.001Z,2.83
2023-03-27T23:29:10.245Z,3.07
2023-03-27T23:31:37.355Z,3.03
2023-03-27T23:34:04.562Z,2.70
2023-03-27T23:36:31.636Z,2.73
2023-03-27T23:38:58.790Z,3.00
2023-03-27T23:41:25.880Z,2.93
2023-03-27T23:43:54.355Z,3.20
2023-03-27T23:46:21.492Z,3.80
2023-03-27T23:48:48.650Z,2.73
2023-03-27T23:51:16.201Z,2.63
2023-03-27T23:53:43.401Z,2.90
2023-03-27T23:56:10.584Z,2.20
2023-03-27T23:58:37.948Z,3.50
